Time;durP1;ratioP1;P1;durP2;ratioP2;P2;SDS_P1;SDS_P2;PMS_P1;PMS_P2;Temp;Humidity;BMP_temperature;BMP_pressure;BME280_temperature;BME280_humidity;BME280_pressure;Samples;Min_cycle;Max_cycle;Signal;HPM_P1;HPM_P2
2023/04/29 00:02:07;;;;;;;;;;;;;;;18.43;41.33;101144.77;102862;1296;73838;-82
2023/04/29 00:04:38;;;;;;;;;;;;;;;18.44;41.37;101140.28;102916;1294;74510;-83
2023/04/29 00:07:16;;;;;;;;;;;;;;;18.45;41.36;101141.16;102855;1294;61344;-82
2023/04/29 00:09:44;;;;;;;;;;;;;;;18.44;41.41;101140.47;102687;1294;61619;-83
2023/04/29 00:12:23;;;;;;;;;;;;;;;18.44;41.34;101141.18;102898;1294;73751;-83
2023/04/29 00:14:51;;;;;;;;;;;;;;;18.44;41.39;101141.55;102840;1294;74300;-83
2023/04/29 00:17:23;;;;;;;;;;;;;;;18.44;41.58;101138.88;103188;1288;61757;-82
2023/04/29 00:19:56;;;;;;;;;;;;;;;18.43;41.31;101139.77;103528;1286;61348;-82
2023/04/29 00:22:50;;;;;;;;;;;;;;;18.43;41.29;101139.98;103522;1288;71216;-82
2023/04/29 00:25:19;;;;;;;;;;;;;;;18.43;41.45;101138.17;103561;1287;75410;-82
2023/04/29 00:27:47;;;;;;;;;;;;;;;18.43;41.48;101136.23;103539;1287;61356;-82
2023/04/29 00:30:19;;;;;;;;;;;;;;;18.43;41.53;101135.50;103465;1287;61841;-83
2023/04/29 00:32:57;;;;;;;;;;;;;;;18.43;41.51;101130.34;103491;1288;72489;-82
2023/04/29 00:35:25;;;;;;;;;;;;;;;18.43;41.48;101128.58;103564;1286;74800;-83
2023/04/29 00:38:01;;;;;;;;;;;;;;;18.43;41.52;101124.64;103374;1288;61307;-83
2023/04/29 00:40:36;;;;;;;;;;;;;;;18.43;41.48;101123.77;103521;1289;61252;-83
2023/04/29 00:43:07;;;;;;;;;;;;;;;18.43;41.63;101127.50;103429;1286;73826;-83
2023/04/29 00:45:49;;;;;;;;;;;;;;;18.42;41.57;101124.86;103536;1288;75266;-83
2023/04/29 00:48:20;;;;;;;;;;;;;;;18.43;41.55;101124.14;103531;1288;62517;-82
2023/04/29 00:50:49;;;;;;;;;;;;;;;18.42;41.56;101122.91;103594;1288;61717;-82
2023/04/29 00:53:21;;;;;;;;;;;;;;;18.42;41.64;101121.31;103540;1285;73765;-83
2023/04/29 00:55:50;;;;;;;;;;;;;;;18.42;41.56;101116.86;103619;1286;75250;-82
2023/04/29 00:58:38;;;;;;;;;;;;;;;18.42;41.57;101116.88;103648;1286;61291;-82
2023/04/29 01:01:13;;;;;;;;;;;;;;;18.42;41.51;101115.82;103560;1288;61285;-83
2023/04/29 01:03:46;;;;;;;;;;;;;;;18.42;41.65;101112.27;103444;1286;72612;-84
2023/04/29 01:07:07;;;;;;;;;;;;;;;18.42;41.62;101113.50;103520;1285;76238;-83
2023/04/29 01:09:35;;;;;;;;;;;;;;;18.42;41.68;101117.06;102958;1291;61510;-82
2023/04/29 01:12:24;;;;;;;;;;;;;;;18.42;41.77;101115.13;102991;1291;61311;-83
2023/04/29 01:14:56;;;;;;;;;;;;;;;18.41;41.76;101112.63;103007;1291;74301;-83
2023/04/29 01:17:24;;;;;;;;;;;;;;;18.42;41.66;101109.58;102916;1292;74574;-82
2023/04/29 01:19:54;;;;;;;;;;;;;;;18.41;41.62;101110.85;103060;1291;61423;-82
2023/04/29 01:22:34;;;;;;;;;;;;;;;18.41;41.68;101109.27;103086;1293;61385;-82
2023/04/29 01:25:09;;;;;;;;;;;;;;;18.41;41.83;101107.67;103008;1291;73867;-83
2023/04/29 01:27:58;;;;;;;;;;;;;;;18.41;41.74;101108.59;102909;1297;75319;-83
2023/04/29 01:30:43;;;;;;;;;;;;;;;18.40;41.80;101107.67;103075;1291;62011;-82
2023/04/29 01:33:21;;;;;;;;;;;;;;;18.41;41.77;101106.59;103018;1291;61342;-83
2023/04/29 01:35:56;;;;;;;;;;;;;;;18.41;41.75;101105.54;103045;1291;72565;-82
2023/04/29 01:38:42;;;;;;;;;;;;;;;18.41;41.84;101106.08;102976;1292;75500;-82
2023/04/29 01:41:25;;;;;;;;;;;;;;;18.40;41.62;101105.90;103034;1292;61400;-83
2023/04/29 01:44:01;;;;;;;;;;;;;;;18.40;41.79;101105.56;103355;1285;61429;-83
2023/04/29 01:46:32;;;;;;;;;;;;;;;18.40;41.72;101106.08;103410;1286;71171;-82
2023/04/29 01:49:07;;;;;;;;;;;;;;;18.40;41.73;101103.08;103581;1285;74408;-83
2023/04/29 01:51:59;;;;;;;;;;;;;;;;;;;;;
2023/04/29 01:54:30;;;;;;;;;;;;;;;18.40;41.76;101102.39;103657;1286;61264;-82
2023/04/29 01:57:04;;;;;;;;;;;;;;;18.40;41.87;101102.73;103637;1291;72514;-83
2023/04/29 01:59:38;;;;;;;;;;;;;;;18.40;41.77;101102.21;103538;1286;75275;-83
2023/04/29 02:02:09;;;;;;;;;;;;;;;18.40;41.97;101099.14;103619;1291;61326;-83
2023/04/29 02:04:46;;;;;;;;;;;;;;;18.40;41.83;101094.54;103662;1286;61268;-83
2023/04/29 02:07:21;;;;;;;;;;;;;;;18.40;41.87;101098.82;103556;1289;73432;-83
2023/04/29 02:09:56;;;;;;;;;;;;;;;18.40;41.78;101100.09;103687;1288;74200;-82
2023/04/29 02:12:22;;;;;;;;;;;;;;;18.39;41.87;101098.83;103713;1286;61391;-82
2023/04/29 02:14:54;;;;;;;;;;;;;;;18.40;41.88;101099.19;103652;1286;61470;-82
2023/04/29 02:17:36;;;;;;;;;;;;;;;18.39;41.92;101097.95;103744;1286;71574;-83
2023/04/29 02:20:02;;;;;;;;;;;;;;;18.39;41.89;101099.55;103762;1286;75409;-82
2023/04/29 02:22:39;;;;;;;;;;;;;;;18.39;41.97;101096.38;103925;1286;61459;-82
2023/04/29 02:25:08;;;;;;;;;;;;;;;18.39;41.95;101098.33;103826;1286;62430;-81
2023/04/29 02:27:37;;;;;;;;;;;;;;;18.39;41.97;101095.64;103381;1289;72285;-83
2023/04/29 02:30:06;;;;;;;;;;;;;;;18.39;41.98;101091.21;103366;1293;74408;-83
2023/04/29 02:32:43;;;;;;;;;;;;;;;18.39;41.88;101091.58;103480;1289;61274;-82
2023/04/29 02:35:11;;;;;;;;;;;;;;;18.39;41.99;101088.70;103475;1288;61896;-82
2023/04/29 02:37:40;;;;;;;;;;;;;;;18.39;42.08;101089.61;103309;1293;73568;-82
2023/04/29 02:40:15;;;;;;;;;;;;;;;18.39;42.11;101088.89;103252;1289;75243;-82
2023/04/29 02:42:43;;;;;;;;;;;;;;;18.38;41.90;101085.71;103416;1289;61417;-82
2023/04/29 02:45:15;;;;;;;;;;;;;;;18.39;41.93;101083.92;103411;1288;61836;-83
2023/04/29 02:47:40;;;;;;;;;;;;;;;18.39;41.96;101089.09;103388;1291;73301;-83
2023/04/29 02:50:09;;;;;;;;;;;;;;;18.38;41.92;101089.64;103412;1289;61359;-83
2023/04/29 02:52:44;;;;;;;;;;;;;;;18.38;42.00;101091.24;103389;1289;61394;-83
2023/04/29 02:55:15;;;;;;;;;;;;;;;18.38;42.16;101093.75;103407;1289;61293;-82
2023/04/29 02:57:52;;;;;;;;;;;;;;;18.38;42.10;101093.23;103421;1288;72685;-83
2023/04/29 03:00:29;;;;;;;;;;;;;;;18.37;41.97;101088.09;103628;1286;74425;-83
2023/04/29 03:03:03;;;;;;;;;;;;;;;18.37;42.03;101085.96;103675;1291;61404;-83
2023/04/29 03:05:33;;;;;;;;;;;;;;;18.37;41.96;101091.65;103612;1286;61771;-83
2023/04/29 03:08:21;;;;;;;;;;;;;;;18.37;42.02;101089.88;103660;1288;72461;-83
2023/04/29 03:10:49;;;;;;;;;;;;;;;18.37;42.03;101088.99;103610;1288;74714;-82
2023/04/29 03:13:15;;;;;;;;;;;;;;;18.37;42.02;101091.48;103671;1285;61292;-83
2023/04/29 03:15:57;;;;;;;;;;;;;;;18.37;42.06;101091.85;103624;1290;61365;-84
2023/04/29 03:18:30;;;;;;;;;;;;;;;18.37;42.12;101092.41;103593;1284;72511;-82
2023/04/29 03:21:04;;;;;;;;;;;;;;;18.37;42.02;101095.77;103637;1288;74538;-83
2023/04/29 03:23:38;;;;;;;;;;;;;;;18.37;42.09;101095.44;103585;1286;62377;-82
2023/04/29 03:26:12;;;;;;;;;;;;;;;18.37;42.00;101097.21;103652;1286;61987;-82
2023/04/29 03:28:46;;;;;;;;;;;;;;;18.37;42.04;101096.87;103629;1285;73550;-84
2023/04/29 03:31:19;;;;;;;;;;;;;;;18.36;42.09;101099.54;103569;1292;74396;-82
2023/04/29 03:33:47;;;;;;;;;;;;;;;18.37;42.20;101105.06;103697;1286;61327;-83
2023/04/29 03:36:19;;;;;;;;;;;;;;;18.37;42.20;101103.63;103602;1286;61394;-82
2023/04/29 03:38:53;;;;;;;;;;;;;;;18.37;42.33;101109.16;103494;1291;72331;-83
2023/04/29 03:41:25;;;;;;;;;;;;;;;18.37;42.25;101112.53;103603;1286;75578;-83
2023/04/29 03:43:59;;;;;;;;;;;;;;;18.37;42.24;101110.58;103593;1291;62578;-82
2023/04/29 03:46:25;;;;;;;;;;;;;;;18.37;42.26;101113.08;103623;1286;61340;-83
2023/04/29 03:49:02;;;;;;;;;;;;;;;18.37;42.26;101114.14;103584;1290;73463;-83
2023/04/29 03:51:28;;;;;;;;;;;;;;;18.37;42.18;101118.23;103625;1286;75425;-83
2023/04/29 03:54:05;;;;;;;;;;;;;;;18.36;42.28;101124.13;103529;1286;61326;-83
2023/04/29 03:56:38;;;;;;;;;;;;;;;18.37;42.26;101120.35;103542;1286;61451;-83
2023/04/29 03:59:14;;;;;;;;;;;;;;;18.37;42.25;101118.79;103652;1284;73500;-82
2023/04/29 04:01:40;;;;;;;;;;;;;;;18.37;42.31;101121.96;103624;1286;74002;-83
2023/04/29 04:04:08;;;;;;;;;;;;;;;18.37;42.28;101122.14;103541;1286;61302;-83
2023/04/29 04:06:43;;;;;;;;;;;;;;;18.37;42.36;101123.23;103611;1286;61358;-83
2023/04/29 04:09:14;;;;;;;;;;;;;;;18.37;42.34;101120.52;103572;1291;72262;-83
2023/04/29 04:11:44;;;;;;;;;;;;;;;18.37;42.24;101124.98;103628;1287;74243;-83
2023/04/29 04:14:12;;;;;;;;;;;;;;;18.37;42.32;101125.89;103630;1288;61423;-83
2023/04/29 04:16:49;;;;;;;;;;;;;;;;;;;;;
2023/04/29 04:19:17;;;;;;;;;;;;;;;18.37;42.31;101120.37;103656;1286;71861;-83
2023/04/29 04:21:51;;;;;;;;;;;;;;;18.37;42.35;101120.34;103598;1286;74032;-83
2023/04/29 04:24:20;;;;;;;;;;;;;;;18.37;42.35;101123.55;103664;1285;61307;-83
2023/04/29 04:26:57;;;;;;;;;;;;;;;18.37;42.43;101123.72;103554;1285;61253;-83
2023/04/29 04:29:23;;;;;;;;;;;;;;;18.38;42.35;101123.36;103587;1288;73544;-82
2023/04/29 04:32:04;;;;;;;;;;;;;;;18.38;42.31;101123.71;103577;1287;75332;-83
2023/04/29 04:34:38;;;;;;;;;;;;;;;18.38;42.41;101126.20;103662;1288;62011;-83
2023/04/29 04:37:07;;;;;;;;;;;;;;;18.38;42.32;101127.46;103569;1289;62630;-83
2023/04/29 04:39:39;;;;;;;;;;;;;;;18.38;42.34;101123.90;103633;1286;72519;-83
2023/04/29 04:42:14;;;;;;;;;;;;;;;18.38;42.34;101126.55;103627;1288;74450;-82
2023/04/29 04:44:39;;;;;;;;;;;;;;;18.38;42.44;101124.05;103635;1286;61408;-84
2023/04/29 04:47:13;;;;;;;;;;;;;;;18.38;42.26;101128.48;103645;1286;62659;-83
2023/04/29 04:49:52;;;;;;;;;;;;;;;18.39;42.27;101130.06;103665;1284;73340;-82
2023/04/29 04:52:25;;;;;;;;;;;;;;;18.39;42.62;101129.70;103622;1286;74771;-84
2023/04/29 04:55:00;;;;;;;;;;;;;;;18.39;42.35;101129.36;103703;1288;61401;-83
2023/04/29 04:57:26;;;;;;;;;;;;;;;18.39;42.35;101133.45;103619;1288;61363;-82
2023/04/29 04:59:54;;;;;;;;;;;;;;;18.40;42.34;101136.77;103597;1291;73578;-82
2023/04/29 05:02:30;;;;;;;;;;;;;;;18.40;42.36;101135.70;103648;1290;61460;-82
2023/04/29 05:05:04;;;;;;;;;;;;;;;18.40;42.41;101134.42;103665;1286;61458;-83
2023/04/29 05:07:35;;;;;;;;;;;;;;;18.40;42.28;101132.09;103662;1286;62240;-82
2023/04/29 05:10:10;;;;;;;;;;;;;;;18.41;42.39;101129.94;103533;1291;73452;-82
2023/04/29 05:12:35;;;;;;;;;;;;;;;18.42;42.39;101130.97;103624;1288;74591;-82
2023/04/29 05:15:18;;;;;;;;;;;;;;;18.42;42.47;101132.90;103637;1288;62395;-82
2023/04/29 05:17:49;;;;;;;;;;;;;;;18.43;42.46;101131.05;103550;1288;61383;-82
2023/04/29 05:20:15;;;;;;;;;;;;;;;18.45;42.48;101130.98;103500;1284;72430;-83
2023/04/29 05:23:04;;;;;;;;;;;;;;;18.46;42.50;101128.80;103010;1295;76192;-82
2023/04/29 05:25:29;;;;;;;;;;;;;;;18.47;42.42;101128.38;102842;1292;61352;-84
2023/04/29 05:27:58;;;;;;;;;;;;;;;18.49;42.51;101120.43;103220;1290;61407;-82
2023/04/29 05:30:38;;;;;;;;;;;;;;;18.50;42.57;101122.33;103232;1294;72307;-83
2023/04/29 05:33:07;;;;;;;;;;;;;;;18.51;42.66;101121.39;103230;1290;74571;-84
2023/04/29 05:35:43;;;;;;;;;;;;;;;18.53;42.66;101114.88;103061;1289;61388;-82
2023/04/29 05:38:12;;;;;;;;;;;;;;;18.54;42.46;101121.02;103186;1292;61586;-83
2023/04/29 05:40:37;;;;;;;;;;;;;;;18.55;42.60;101118.13;102994;1292;73448;-83
2023/04/29 05:43:23;;;;;;;;;;;;;;;18.56;42.69;101115.02;102589;1297;75972;-83
2023/04/29 05:45:56;;;;;;;;;;;;;;;18.58;42.65;101112.95;102439;1303;61365;-83
2023/04/29 05:48:27;;;;;;;;;;;;;;;18.59;42.69;101113.62;102520;1298;61395;-82
2023/04/29 05:50:53;;;;;;;;;;;;;;;18.61;42.83;101115.16;102516;1297;72375;-83
2023/04/29 05:53:30;;;;;;;;;;;;;;;18.62;42.76;101116.52;102535;1298;74379;-82
2023/04/29 05:55:58;;;;;;;;;;;;;;;18.63;42.77;101117.36;102482;1302;62126;-83
2023/04/29 05:58:27;;;;;;;;;;;;;;;18.64;42.79;101117.67;102522;1300;61424;-83
2023/04/29 06:00:59;;;;;;;;;;;;;;;18.65;42.67;101118.67;102798;1297;73319;-83
2023/04/29 06:03:35;;;;;;;;;;;;;;;;;;;;;
2023/04/29 06:06:04;;;;;;;;;;;;;;;18.67;42.81;101120.86;103181;1294;61984;-83
2023/04/29 06:08:33;;;;;;;;;;;;;;;18.68;42.62;101119.94;103327;1296;61301;-81
2023/04/29 06:11:01;;;;;;;;;;;;;;;18.68;42.64;101121.14;103335;1294;72486;-81
2023/04/29 06:13:29;;;;;;;;;;;;;;;18.69;42.76;101123.42;103116;1291;73787;-83
2023/04/29 06:15:57;;;;;;;;;;;;;;;18.70;42.66;101126.23;103451;1295;61292;-82
2023/04/29 06:18:23;;;;;;;;;;;;;;;18.71;42.68;101120.64;103134;1291;61432;-83
2023/04/29 06:20:53;;;;;;;;;;;;;;;18.72;42.96;101123.44;103642;1292;72686;-82
2023/04/29 06:23:22;;;;;;;;;;;;;;;18.73;42.71;101123.21;104172;1285;61445;-82
2023/04/29 06:25:48;;;;;;;;;;;;;;;18.74;42.82;101123.35;103871;1286;61444;-83
2023/04/29 06:28:16;;;;;;;;;;;;;;;18.75;42.79;101120.59;103983;1289;61477;-83
2023/04/29 06:30:45;;;;;;;;;;;;;;;18.75;42.91;101117.91;103736;1290;72497;-83
2023/04/29 06:33:33;;;;;;;;;;;;;;;18.76;42.93;101118.55;103088;1297;76060;-82
2023/04/29 06:36:07;;;;;;;;;;;;;;;18.77;42.73;101119.94;102952;1293;62724;-83
2023/04/29 06:38:35;;;;;;;;;;;;;;;18.78;42.94;101118.31;102983;1297;61400;-82
2023/04/29 06:41:02;;;;;;;;;;;;;;;18.78;42.77;101114.89;102996;1293;73475;-82
2023/04/29 06:43:33;;;;;;;;;;;;;;;18.79;42.90;101113.44;102881;1296;75483;-83
2023/04/29 06:45:59;;;;;;;;;;;;;;;18.79;42.94;101115.35;102894;1300;62527;-83
2023/04/29 06:48:36;;;;;;;;;;;;;;;18.79;42.95;101115.36;102714;1294;61317;-82
2023/04/29 06:51:10;;;;;;;;;;;;;;;18.80;42.87;101115.14;102833;1298;73470;-83
2023/04/29 06:53:40;;;;;;;;;;;;;;;18.80;42.80;101114.23;102916;1297;74672;-82
2023/04/29 06:56:10;;;;;;;;;;;;;;;18.80;42.86;101112.08;102925;1299;61284;-84
2023/04/29 06:58:35;;;;;;;;;;;;;;;18.81;43.00;101115.45;102919;1297;62193;-82
2023/04/29 07:01:08;;;;;;;;;;;;;;;18.81;42.80;101112.60;102751;1300;61971;-83
2023/04/29 07:03:46;;;;;;;;;;;;;;;18.80;42.97;101113.52;102838;1298;74461;-83
2023/04/29 07:06:31;;;;;;;;;;;;;;;18.81;42.89;101113.50;98676;1299;5893598;-82
2023/04/29 07:09:06;;;;;;;;;;;;;;;18.81;42.95;101111.16;102817;1299;61295;-82
2023/04/29 07:11:32;;;;;;;;;;;;;;;18.82;42.96;101109.88;103254;1286;61807;-83
2023/04/29 07:14:22;;;;;;;;;;;;;;;18.82;42.90;101106.15;103558;1288;72316;-84
2023/04/29 07:16:52;;;;;;;;;;;;;;;18.82;42.96;101109.85;103596;1291;74482;-83
2023/04/29 07:19:20;;;;;;;;;;;;;;;18.82;42.93;101108.06;103508;1287;61384;-82
2023/04/29 07:21:51;;;;;;;;;;;;;;;18.82;42.92;101105.74;103479;1290;61368;-83
2023/04/29 07:24:17;;;;;;;;;;;;;;;18.82;43.08;101102.70;103602;1291;72274;-83
2023/04/29 07:26:50;;;;;;;;;;;;;;;18.82;42.92;101096.11;103665;1291;62062;-83
2023/04/29 07:29:25;;;;;;;;;;;;;;;18.82;42.92;101096.12;103611;1289;61407;-83
2023/04/29 07:31:51;;;;;;;;;;;;;;;18.83;42.98;101100.87;103642;1289;61284;-82
2023/04/29 07:34:33;;;;;;;;;;;;;;;18.83;42.97;101095.55;103566;1291;71777;-83
2023/04/29 07:36:59;;;;;;;;;;;;;;;18.83;42.85;101102.81;103643;1286;74374;-83
2023/04/29 07:39:34;;;;;;;;;;;;;;;18.83;42.95;101099.64;103641;1289;61383;-82
2023/04/29 07:42:00;;;;;;;;;;;;;;;18.83;43.04;101101.44;103631;1290;61415;-83
2023/04/29 07:44:35;;;;;;;;;;;;;;;18.83;42.89;101100.68;103618;1291;61407;-83
2023/04/29 07:47:19;;;;;;;;;;;;;;;;;;;;;
2023/04/29 07:49:47;;;;;;;;;;;;;;;18.83;43.02;101094.11;103621;1291;61227;-82
2023/04/29 07:52:20;;;;;;;;;;;;;;;18.83;43.03;101097.64;103612;1290;61415;-82
2023/04/29 07:54:49;;;;;;;;;;;;;;;18.84;42.98;101093.16;103607;1292;72228;-82
2023/04/29 07:57:17;;;;;;;;;;;;;;;18.83;43.01;101090.86;103664;1285;75293;-83
2023/04/29 07:59:43;;;;;;;;;;;;;;;18.83;42.97;101089.27;103555;1289;61388;-83
2023/04/29 08:02:33;;;;;;;;;;;;;;;18.83;42.92;101084.98;102917;1297;62288;-82
2023/04/29 08:05:06;;;;;;;;;;;;;;;18.83;43.06;101086.77;102961;1293;73398;-83
2023/04/29 08:07:35;;;;;;;;;;;;;;;18.83;43.01;101083.92;102968;1298;75395;-83
2023/04/29 08:10:00;;;;;;;;;;;;;;;18.83;43.03;101081.23;103050;1298;61378;-84
2023/04/29 08:12:33;;;;;;;;;;;;;;;18.83;43.05;101070.92;103007;1297;61398;-82
2023/04/29 08:15:02;;;;;;;;;;;;;;;18.83;43.05;101065.73;103025;1292;72493;-82
2023/04/29 08:17:36;;;;;;;;;;;;;;;18.83;43.10;101065.22;102938;1297;74577;-82
2023/04/29 08:20:07;;;;;;;;;;;;;;;18.83;43.08;101071.30;102926;1297;61357;-83
2023/04/29 08:22:43;;;;;;;;;;;;;;;18.83;43.01;101073.92;103102;1296;61399;-81
2023/04/29 08:25:19;;;;;;;;;;;;;;;18.83;42.92;101064.33;103025;1293;72483;-82
2023/04/29 08:27:49;;;;;;;;;;;;;;;18.83;42.98;101058.61;102981;1297;74878;-83
2023/04/29 08:30:15;;;;;;;;;;;;;;;18.82;43.03;101054.38;102929;1297;61423;-83
2023/04/29 08:32:43;;;;;;;;;;;;;;;18.83;43.03;101049.38;102933;1292;62257;-83
2023/04/29 08:35:09;;;;;;;;;;;;;;;18.83;42.96;101051.14;102980;1292;73517;-83
2023/04/29 08:37:53;;;;;;;;;;;;;;;18.83;43.11;101045.06;103050;1296;74525;-82
2023/04/29 08:40:21;;;;;;;;;;;;;;;18.83;42.92;101045.60;103344;1288;61320;-83
2023/04/29 08:42:49;;;;;;;;;;;;;;;18.83;43.03;101040.81;103580;1286;61334;-83
2023/04/29 08:45:22;;;;;;;;;;;;;;;18.83;43.12;101040.61;103672;1285;72481;-83
2023/04/29 08:47:58;;;;;;;;;;;;;;;18.82;43.06;101033.52;103678;1286;75380;-84
2023/04/29 08:50:44;;;;;;;;;;;;;;;18.82;43.04;101037.63;103617;1285;62364;-83
2023/04/29 08:53:10;;;;;;;;;;;;;;;18.83;43.09;101038.50;103648;1286;61304;-82
2023/04/29 08:55:41;;;;;;;;;;;;;;;18.82;43.19;101037.08;103591;1289;73793;-83
2023/04/29 08:58:10;;;;;;;;;;;;;;;18.82;43.04;101037.98;103620;1286;75138;-82
2023/04/29 09:01:03;;;;;;;;;;;;;;;;;;;;;
2023/04/29 09:03:30;;;;;;;;;;;;;;;18.82;43.20;101040.85;103585;1289;61318;-83
2023/04/29 09:06:00;;;;;;;;;;;;;;;18.82;43.08;101035.34;103556;1286;72556;-83
2023/04/29 09:08:29;;;;;;;;;;;;;;;18.82;43.11;101030.52;103616;1291;75427;-84
2023/04/29 09:11:01;;;;;;;;;;;;;;;18.82;43.29;101028.02;103653;1285;62457;-83
2023/04/29 09:13:34;;;;;;;;;;;;;;;18.81;43.20;101023.94;103649;1286;61349;-83
2023/04/29 09:16:05;;;;;;;;;;;;;;;18.82;43.27;101019.48;103626;1286;73404;-84
2023/04/29 09:18:48;;;;;;;;;;;;;;;18.81;43.22;101020.39;103603;1289;74369;-83
2023/04/29 09:21:17;;;;;;;;;;;;;;;18.81;43.22;101015.23;103616;1286;61467;-84
2023/04/29 09:23:44;;;;;;;;;;;;;;;18.81;43.18;101010.77;103678;1286;61372;-83
2023/04/29 09:26:16;;;;;;;;;;;;;;;18.81;43.31;101008.80;103600;1289;73384;-83
2023/04/29 09:28:46;;;;;;;;;;;;;;;18.81;43.21;101005.45;103565;1286;75413;-82
2023/04/29 09:31:20;;;;;;;;;;;;;;;18.80;43.16;101003.85;103604;1286;61381;-83
2023/04/29 09:33:53;;;;;;;;;;;;;;;18.81;43.13;101002.96;103594;1286;61431;-83
2023/04/29 09:36:46;;;;;;;;;;;;;;;18.80;43.24;101002.26;103628;1285;72619;-82
2023/04/29 09:39:13;;;;;;;;;;;;;;;18.80;43.15;100998.35;103629;1286;75431;-83
2023/04/29 09:42:02;;;;;;;;;;;;;;;18.79;43.37;100991.96;103564;1287;61234;-83
2023/04/29 09:44:34;;;;;;;;;;;;;;;18.79;43.22;100983.76;103711;1285;62036;-84
2023/04/29 09:47:01;;;;;;;;;;;;;;;18.79;43.26;100982.34;103660;1290;72515;-84
2023/04/29 09:49:39;;;;;;;;;;;;;;;18.79;43.33;100984.67;103610;1288;75400;-82
2023/04/29 09:52:08;;;;;;;;;;;;;;;18.79;43.15;100978.45;103629;1286;61393;-82
2023/04/29 09:54:37;;;;;;;;;;;;;;;18.78;43.22;100977.94;103632;1286;62484;-83
2023/04/29 09:57:26;;;;;;;;;;;;;;;18.79;43.21;100978.64;103615;1286;73705;-83
2023/04/29 09:59:51;;;;;;;;;;;;;;;18.78;43.37;100977.95;103577;1289;75754;-83
2023/04/29 10:02:31;;;;;;;;;;;;;;;18.78;43.22;100976.88;103574;1285;61390;-83
2023/04/29 10:04:57;;;;;;;;;;;;;;;18.78;43.34;100971.71;103625;1285;61359;-83
2023/04/29 10:07:25;;;;;;;;;;;;;;;18.78;43.34;100967.62;103638;1289;61329;-82
2023/04/29 10:09:56;;;;;;;;;;;;;;;18.78;43.38;100968.33;103620;1286;75517;-83
2023/04/29 10:12:27;;;;;;;;;;;;;;;18.78;43.34;100964.79;103542;1286;61394;-83
2023/04/29 10:15:07;;;;;;;;;;;;;;;18.77;43.26;100966.77;103608;1290;61341;-82
2023/04/29 10:17:39;;;;;;;;;;;;;;;18.76;43.42;100962.35;103610;1286;72360;-83
2023/04/29 10:20:16;;;;;;;;;;;;;;;18.76;43.49;100958.05;103649;1286;74696;-84
2023/04/29 10:22:48;;;;;;;;;;;;;;;18.76;43.25;100951.31;103617;1284;61346;-83
2023/04/29 10:25:15;;;;;;;;;;;;;;;18.76;43.27;100951.48;103534;1292;61742;-84
2023/04/29 10:27:52;;;;;;;;;;;;;;;18.76;43.50;100948.63;103431;1289;72714;-83
2023/04/29 10:30:24;;;;;;;;;;;;;;;18.76;43.32;100941.88;103496;1291;75519;-82
2023/04/29 10:32:55;;;;;;;;;;;;;;;18.75;43.33;100941.54;103360;1287;62359;-84
2023/04/29 10:35:38;;;;;;;;;;;;;;;18.75;43.34;100941.55;103355;1293;61570;-83
2023/04/29 10:38:13;;;;;;;;;;;;;;;18.75;43.37;100934.09;103330;1292;61336;-83
2023/04/29 10:40:44;;;;;;;;;;;;;;;18.74;43.34;100937.31;103421;1292;74275;-83
2023/04/29 10:43:19;;;;;;;;;;;;;;;18.75;43.50;100938.55;103534;1289;61583;-83
2023/04/29 10:45:45;;;;;;;;;;;;;;;18.74;43.47;100935.92;104004;1287;61384;-82
2023/04/29 10:48:11;;;;;;;;;;;;;;;18.74;43.41;100930.25;103844;1287;61486;-81
2023/04/29 10:50:58;;;;;;;;;;;;;;;18.74;43.51;100929.88;103803;1289;62400;-81
2023/04/29 10:53:24;;;;;;;;;;;;;;;18.74;43.42;100928.82;103738;1292;62453;-82
2023/04/29 10:55:59;;;;;;;;;;;;;;;18.74;43.49;100925.94;104052;1286;61502;-82
2023/04/29 10:58:38;;;;;;;;;;;;;;;18.74;43.38;100927.39;104019;1285;73212;-83
2023/04/29 11:01:10;;;;;;;;;;;;;;;18.74;43.40;100923.84;103723;1289;74294;-82
2023/04/29 11:03:58;;;;;;;;;;;;;;;18.74;43.36;100926.84;103574;1292;61336;-82
2023/04/29 11:06:33;;;;;;;;;;;;;;;18.74;43.50;100919.73;103736;1286;61267;-82
2023/04/29 11:09:19;;;;;;;;;;;;;;;18.74;43.51;100915.44;103942;1286;72867;-83
2023/04/29 11:12:00;;;;;;;;;;;;;;;18.74;43.35;100913.48;103824;1286;75717;-82
2023/04/29 11:14:26;;;;;;;;;;;;;;;18.74;43.38;100907.24;103810;1286;61397;-82
2023/04/29 11:17:03;;;;;;;;;;;;;;;18.74;43.32;100903.65;103774;1286;61545;-83
2023/04/29 11:19:40;;;;;;;;;;;;;;;18.73;43.37;100898.70;103518;1290;72400;-82
2023/04/29 11:22:13;;;;;;;;;;;;;;;18.74;43.43;100895.83;103730;1286;74376;-82
2023/04/29 11:25:01;;;;;;;;;;;;;;;18.74;43.36;100894.59;103729;1291;61320;-82
2023/04/29 11:27:38;;;;;;;;;;;;;;;18.73;43.34;100889.23;103779;1286;62503;-81
2023/04/29 11:30:17;;;;;;;;;;;;;;;18.74;43.34;100889.77;103214;1286;71298;-82
2023/04/29 11:32:43;;;;;;;;;;;;;;;18.74;43.34;100886.02;103702;1291;74399;-82
2023/04/29 11:35:12;;;;;;;;;;;;;;;18.73;43.31;100884.27;103727;1290;61429;-84
2023/04/29 11:37:40;;;;;;;;;;;;;;;18.73;43.45;100880.69;103482;1286;61377;-83
2023/04/29 11:40:14;;;;;;;;;;;;;;;18.73;43.34;100877.52;103562;1291;72408;-82
2023/04/29 11:42:49;;;;;;;;;;;;;;;18.73;43.41;100878.91;103527;1291;75362;-83
2023/04/29 11:45:17;;;;;;;;;;;;;;;18.73;43.34;100879.80;103654;1286;61399;-82
2023/04/29 11:47:52;;;;;;;;;;;;;;;18.73;43.38;100877.70;103644;1286;61368;-83
2023/04/29 11:50:18;;;;;;;;;;;;;;;18.73;43.45;100874.63;103567;1290;62427;-83
2023/04/29 11:53:04;;;;;;;;;;;;;;;18.72;43.47;100865.05;103507;1286;74247;-83
2023/04/29 11:55:34;;;;;;;;;;;;;;;18.73;43.30;100863.96;103624;1285;62439;-83
2023/04/29 11:58:12;;;;;;;;;;;;;;;;;;;;;
2023/04/29 12:00:41;;;;;;;;;;;;;;;18.72;43.34;100857.23;103532;1285;72615;-83
2023/04/29 12:03:20;;;;;;;;;;;;;;;18.73;43.42;100857.91;103574;1285;75601;-83
2023/04/29 12:06:06;;;;;;;;;;;;;;;18.72;43.21;100850.61;103562;1285;62403;-83
2023/04/29 12:08:40;;;;;;;;;;;;;;;18.73;43.33;100853.83;103563;1285;61454;-83
2023/04/29 12:11:09;;;;;;;;;;;;;;;18.73;43.23;100853.27;103581;1286;72548;-82
2023/04/29 12:13:35;;;;;;;;;;;;;;;18.72;43.25;100854.36;103575;1291;74505;-83
2023/04/29 12:16:09;;;;;;;;;;;;;;;18.72;43.25;100849.91;103639;1286;62112;-83
2023/04/29 12:18:39;;;;;;;;;;;;;;;18.72;43.23;100846.51;103584;1291;61268;-83
2023/04/29 12:21:05;;;;;;;;;;;;;;;18.73;43.26;100836.68;103651;1286;71369;-82
2023/04/29 12:23:34;;;;;;;;;;;;;;;18.73;43.41;100831.17;103747;1288;73720;-83
2023/04/29 12:26:07;;;;;;;;;;;;;;;18.73;43.42;100830.64;103527;1286;61410;-83
2023/04/29 12:28:33;;;;;;;;;;;;;;;18.72;43.38;100832.97;103665;1286;61734;-82
2023/04/29 12:31:05;;;;;;;;;;;;;;;18.73;43.47;100831.69;103666;1286;61356;-82
2023/04/29 12:33:34;;;;;;;;;;;;;;;18.73;43.39;100832.42;103677;1289;73460;-84
2023/04/29 12:36:14;;;;;;;;;;;;;;;18.73;43.36;100827.44;103728;1285;61372;-83
2023/04/29 12:38:40;;;;;;;;;;;;;;;18.73;43.37;100822.08;103712;1286;61697;-83
2023/04/29 12:41:06;;;;;;;;;;;;;;;18.73;43.39;100822.59;103635;1291;61329;-82
2023/04/29 12:43:35;;;;;;;;;;;;;;;18.73;43.35;100824.55;103879;1290;63421;-81
2023/04/29 12:46:01;;;;;;;;;;;;;;;18.73;43.29;100825.06;103621;1286;62380;-82
2023/04/29 12:48:39;;;;;;;;;;;;;;;18.74;43.41;100826.48;103649;1286;61391;-83
2023/04/29 12:51:08;;;;;;;;;;;;;;;18.75;43.47;100822.48;103644;1290;73509;-83
2023/04/29 12:53:34;;;;;;;;;;;;;;;18.75;43.46;100815.52;103560;1286;73397;-83
2023/04/29 12:56:30;;;;;;;;;;;;;;;18.75;43.42;100806.79;102962;1294;61519;-82
2023/04/29 12:58:55;;;;;;;;;;;;;;;18.75;43.48;100798.72;103245;1292;61303;-81
2023/04/29 13:01:23;;;;;;;;;;;;;;;18.76;43.42;100793.55;103233;1298;74405;-82
2023/04/29 13:03:57;;;;;;;;;;;;;;;18.76;43.54;100790.11;103030;1298;74467;-82